FZAA/FIH METAR and TAF weather

Enter ICAO airport designator
Station Type Date Time Source
FZAA METAR 2019/04/24 10:00 UTC NOAA

FZAA 241000Z 26004KT 8000 BKN022 32/24 Q1013 NOSIG


Station Type Date Time Source
FZAA Decoded METAR 2019/04/24 10:00 UTC NOAA

Kinshasa / N'Djili, Congo, Democratic Republic of the (FZAA) 04-23S 015-26E 312M
Apr 24, 2019 - 06:00 AM EDT / 2019.04.24 1000 UTC
Wind: from the W (260 degrees) at 5 MPH (4 KT):0
Visibility: 4 mile(s):0
Sky conditions: mostly cloudy
Temperature: 89 F (32 C)
Heat index: 98.4 F (36.9 C):1
Dew Point: 75 F (24 C)
Relative Humidity: 62%
Pressure (altimeter): 29.91 in. Hg (1013 hPa)
ob: FZAA 241000Z 26004KT 8000 BKN022 32/24 Q1013 NOSIG
cycle: 10

Station Type Date Time Source
FZAA TAF 2019/04/25 18:57 UTC NOAA

TAF TAF FZAA 251700Z 2518/2624 20004KT 8000 FEW024 FEW030CB
BECMG 2519/2521 FEW018
BECMG 2611/2613 33010KT SCT025 FEW030CB PROB30 2616/2621 TS

Example: see airport list